Time;durP1;ratioP1;P1;durP2;ratioP2;P2;SDS_P1;SDS_P2;PMS_P1;PMS_P2;Temp;Humidity;BMP_temperature;BMP_pressure;BME280_temperature;BME280_humidity;BME280_pressure;Samples;Min_cycle;Max_cycle;Signal;HPM_P1;HPM_P2
2021/05/18 00:00:31;;;;;;;17.05;9.73;;;;;;;13.87;100.00;100054.47;5006087;28;20029;-75
2021/05/18 00:02:57;;;;;;;17.25;9.68;;;;;;;13.94;100.00;100052.53;4998365;28;20061;-75
2021/05/18 00:05:24;;;;;;;19.33;10.65;;;;;;;13.98;100.00;100058.72;5005081;28;20061;-76
2021/05/18 00:08:02;;;;;;;18.55;10.20;;;;;;;13.99;100.00;100065.69;5010329;28;20095;-74
2021/05/18 00:13:24;;;;;;;20.92;10.80;;;;;;;13.89;100.00;100073.81;4962671;28;20601;-74
2021/05/18 00:15:54;;;;;;;20.25;11.35;;;;;;;14.06;100.00;100078.41;4999089;28;20076;-75
2021/05/18 00:18:21;;;;;;;20.00;10.95;;;;;;;14.00;100.00;100078.03;5005922;28;20100;-75
2021/05/18 00:20:47;;;;;;;21.67;10.90;;;;;;;13.99;100.00;100078.44;5008456;28;20034;-74
2021/05/18 00:23:13;;;;;;;19.58;10.48;;;;;;;13.99;100.00;100087.34;5003169;28;20031;-75
2021/05/18 00:25:40;;;;;;;20.23;10.13;;;;;;;13.94;100.00;100090.44;5003761;28;20029;-75
2021/05/18 00:28:06;;;;;;;20.33;10.10;;;;;;;13.95;100.00;100089.28;5009398;28;20070;-75
2021/05/18 00:30:31;;;;;;;22.77;10.68;;;;;;;13.97;100.00;100091.59;5009359;28;20092;-75
2021/05/18 00:32:57;;;;;;;18.25;9.93;;;;;;;13.91;100.00;100091.22;5006068;28;20751;-74
2021/05/18 00:35:23;;;;;;;18.73;9.65;;;;;;;13.65;100.00;100093.56;5003016;28;20033;-76
2021/05/18 00:37:48;;;;;;;20.58;10.25;;;;;;;13.71;100.00;100109.03;5009899;28;20049;-75
2021/05/18 00:40:17;;;;;;;22.60;10.07;;;;;;;13.82;100.00;100104.38;5008435;28;20479;-75
2021/05/18 00:42:47;;;;;;;22.88;10.30;;;;;;;13.69;100.00;100107.88;5003868;28;20036;-75
2021/05/18 00:45:14;;;;;;;23.52;10.63;;;;;;;13.55;100.00;100114.06;5003797;28;20095;-74
2021/05/18 00:47:40;;;;;;;23.55;10.32;;;;;;;13.48;100.00;100119.50;5008080;28;20042;-74
2021/05/18 00:50:07;;;;;;;25.92;10.57;;;;;;;13.44;100.00;100116.00;5004406;28;20145;-74
2021/05/18 00:52:32;;;;;;;22.13;9.38;;;;;;;13.55;100.00;100122.19;5000593;28;20095;-74
2021/05/18 00:55:07;;;;;;;20.25;9.30;;;;;;;13.53;100.00;100119.09;5003915;28;20744;-76
2021/05/18 01:00:19;;;;;;;20.98;10.25;;;;;;;13.13;100.00;100133.78;4999457;28;20536;-75
2021/05/18 01:02:48;;;;;;;26.33;10.02;;;;;;;13.21;100.00;100134.53;5000328;28;20091;-74
2021/05/18 01:05:19;;;;;;;22.88;9.65;;;;;;;13.07;100.00;100135.31;4999525;28;20089;-75
2021/05/18 01:07:47;;;;;;;22.05;10.02;;;;;;;13.20;100.00;100147.28;5006429;28;20042;-75
2021/05/18 01:10:13;;;;;;;20.65;10.40;;;;;;;13.08;100.00;100152.31;4997921;28;20546;-74
2021/05/18 01:12:39;;;;;;;22.15;9.25;;;;;;;12.97;100.00;100152.22;5001687;28;20030;-74
2021/05/18 01:15:09;;;;;;;17.00;9.20;;;;;;;12.97;100.00;100159.59;4999233;28;20038;-75
2021/05/18 01:17:35;;;;;;;20.63;10.30;;;;;;;13.12;99.32;100153.09;5009505;28;20108;-75
2021/05/18 01:20:12;;;;;;;20.80;8.98;;;;;;;13.16;98.97;100160.03;5002950;28;20514;-75
2021/05/18 01:22:48;;;;;;;17.17;8.60;;;;;;;13.09;98.86;100161.94;5001192;28;20026;-75
2021/05/18 01:25:16;;;;;;;20.65;10.32;;;;;;;12.90;100.00;100157.63;5012143;28;20057;-75
2021/05/18 01:27:41;;;;;;;18.50;9.82;;;;;;;12.77;100.00;100158.38;5013436;28;20029;-74
2021/05/18 01:30:08;;;;;;;21.48;10.13;;;;;;;12.80;100.00;100169.19;5004920;28;20041;-74
2021/05/18 01:32:40;;;;;;;18.60;9.73;;;;;;;12.95;100.00;100170.75;5009721;28;20505;-75
2021/05/18 01:35:07;;;;;;;20.65;9.98;;;;;;;12.92;100.00;100176.16;5010734;28;20076;-74
2021/05/18 01:37:34;;;;;;;21.17;10.68;;;;;;;12.95;99.75;100175.41;5004859;28;20026;-75
2021/05/18 01:40:13;;;;;;;19.13;10.43;;;;;;;12.91;100.00;100182.75;5000871;28;20029;-75
2021/05/18 01:42:51;;;;;;;22.20;10.35;;;;;;;12.70;100.00;100178.78;5029383;22;20516;-72
2021/05/18 01:45:29;;;;;;;21.10;10.15;;;;;;;12.87;100.00;100187.34;5023641;28;20021;-72
2021/05/18 01:47:59;;;;;;;22.75;10.57;;;;;;;12.79;100.00;100191.97;5023337;28;20516;-73
2021/05/18 01:50:35;;;;;;;22.52;10.30;;;;;;;12.76;100.00;100195.41;5028122;28;20037;-72
2021/05/18 01:53:01;;;;;;;21.08;10.38;;;;;;;12.70;100.00;100191.53;5017806;28;20030;-73
2021/05/18 01:55:44;;;;;;;21.80;10.57;;;;;;;12.79;99.83;100210.09;5017609;28;20458;-72
2021/05/18 01:58:10;;;;;;;20.65;10.52;;;;;;;12.79;99.98;100205.47;5014639;28;20068;-73
2021/05/18 02:00:48;;;;;;;18.25;10.90;;;;;;;12.80;99.50;100200.81;5010615;28;20046;-72
2021/05/18 02:03:23;;;;;;;19.02;11.40;;;;;;;12.55;100.00;100217.72;5015949;28;20046;-72
2021/05/18 02:05:49;;;;;;;18.38;10.70;;;;;;;12.60;100.00;100214.63;5018616;28;20113;-74
2021/05/18 02:08:27;;;;;;;23.02;11.23;;;;;;;12.80;99.51;100209.72;5015916;28;20045;-72
2021/05/18 02:10:58;;;;;;;19.33;10.55;;;;;;;12.80;98.49;100212.41;5007554;28;20033;-72
2021/05/18 02:13:24;;;;;;;22.17;11.07;;;;;;;12.59;99.92;100213.09;5011203;28;20048;-72
2021/05/18 02:15:58;;;;;;;19.02;10.70;;;;;;;12.74;100.00;100213.19;4987247;28;20018;-72
2021/05/18 02:26:21;;;;;;;16.05;8.95;;;;;;;12.73;99.90;100220.50;5013287;28;20029;-72
2021/05/18 02:28:51;;;;;;;16.58;8.57;;;;;;;12.82;99.00;100230.94;5008119;28;20068;-72
2021/05/18 02:31:18;;;;;;;15.93;8.18;;;;;;;12.74;99.59;100237.50;5018056;28;20057;-72
2021/05/18 02:33:48;;;;;;;15.80;7.45;;;;;;;12.81;99.21;100241.00;5010824;28;20034;-72
2021/05/18 02:36:16;;;;;;;17.17;7.68;;;;;;;12.67;99.17;100235.53;5007544;28;20140;-72
2021/05/18 02:38:42;;;;;;;13.20;7.03;;;;;;;12.48;99.91;100238.50;5015243;28;20478;-72
2021/05/18 02:41:15;;;;;;;10.85;6.32;;;;;;;12.68;98.75;100251.34;5010913;28;20474;-73
2021/05/18 02:43:55;;;;;;;10.23;5.93;;;;;;;12.73;97.87;100252.16;5006522;28;20112;-73
2021/05/18 02:49:12;;;;;;;11.35;6.30;;;;;;;12.65;97.55;100259.44;5001927;28;20464;-71
2021/05/18 02:51:43;;;;;;;12.68;6.28;;;;;;;12.44;99.47;100259.31;5006988;28;20036;-70
2021/05/18 02:54:11;;;;;;;12.05;6.03;;;;;;;12.54;98.89;100261.31;5001536;28;20037;-70
2021/05/18 03:01:38;;;;;;;13.15;6.13;;;;;;;12.55;98.04;100271.75;5014606;28;20033;-72
2021/05/18 03:04:05;;;;;;;16.90;6.15;;;;;;;12.37;98.27;100270.06;5014321;28;20048;-72
2021/05/18 03:06:31;;;;;;;18.85;6.18;;;;;;;12.52;97.42;100275.19;5006401;28;20034;-73
2021/05/18 03:08:57;;;;;;;13.93;6.65;;;;;;;12.48;98.15;100276.31;5009642;28;20026;-73
2021/05/18 03:11:25;;;;;;;14.75;6.70;;;;;;;12.38;98.26;100272.41;4988507;28;20121;-74
2021/05/18 03:13:51;;;;;;;20.50;7.18;;;;;;;12.43;98.13;100272.03;5010234;28;20036;-70
2021/05/18 03:16:17;;;;;;;13.50;6.43;;;;;;;12.41;97.76;100279.75;5019341;28;20393;-71
2021/05/18 03:18:43;;;;;;;15.63;6.28;;;;;;;12.52;96.69;100294.09;5017291;28;20038;-70
2021/05/18 03:21:08;;;;;;;14.45;6.70;;;;;;;12.66;95.58;100285.28;5009618;28;20137;-70
2021/05/18 03:23:34;;;;;;;12.77;6.43;;;;;;;12.59;95.92;100288.75;5013794;28;20374;-70
2021/05/18 03:25:59;;;;;;;13.77;6.78;;;;;;;12.40;96.32;100285.53;5015974;28;20092;-73
2021/05/18 03:28:24;;;;;;;16.13;6.50;;;;;;;12.39;97.59;100292.84;5009961;28;20038;-75
2021/05/18 03:36:09;;;;;;;15.00;6.40;;;;;;;12.43;95.25;100298.25;5009313;28;20064;-74
2021/05/18 03:38:42;;;;;;;12.60;6.35;;;;;;;12.31;94.90;100298.59;5002571;28;20061;-74
2021/05/18 03:41:53;;;;;;;13.68;6.40;;;;;;;12.24;94.83;100296.59;4994158;28;20026;-74
2021/05/18 03:44:07;;;;;;;10.65;5.80;;;;;;;12.35;94.60;100299.38;4993053;28;20544;-70
2021/05/18 04:04:52;;;;;;;12.23;5.05;;;;;;;12.30;94.57;100310.53;5004631;28;20069;-73
2021/05/18 04:10:40;;;;;;;11.23;4.53;;;;;;;12.41;93.07;100317.56;5004528;28;20049;-72
2021/05/18 04:18:26;;;;;;;8.73;4.60;;;;;;;12.26;93.76;100323.22;5006414;28;20076;-71
2021/05/18 04:20:58;;;;;;;7.88;3.90;;;;;;;12.42;93.20;100321.03;5005999;28;20038;-71
2021/05/18 05:14:22;;;;;;;7.68;3.70;;;;;;;13.48;88.41;100371.88;4968873;28;20042;-74
2021/05/18 05:16:49;;;;;;;9.70;3.30;;;;;;;13.46;85.58;100368.75;4965697;28;20045;-68
2021/05/18 05:19:15;;;;;;;11.27;3.10;;;;;;;13.34;86.10;100371.78;4911091;28;20046;-69
2021/05/18 05:21:41;;;;;;;11.30;3.58;;;;;;;13.51;85.80;100373.03;4966911;28;20041;-71
2021/05/18 05:24:27;;;;;;;9.65;4.07;;;;;;;13.51;84.72;100376.50;4974788;28;20379;-72
2021/05/18 05:26:54;;;;;;;9.70;4.10;;;;;;;13.31;85.94;100380.69;4951445;28;20051;-72
2021/05/18 05:29:20;;;;;;;11.52;3.85;;;;;;;13.12;87.11;100380.97;4946103;28;20717;-72
2021/05/18 05:31:48;;;;;;;8.27;4.03;;;;;;;12.96;88.99;100375.06;4948716;28;20078;-71
2021/05/18 05:34:13;;;;;;;8.70;3.75;;;;;;;12.93;88.58;100380.44;4955768;28;20043;-71
2021/05/18 05:36:39;;;;;;;10.32;3.70;;;;;;;13.23;88.01;100384.50;4958096;28;20034;-71
2021/05/18 05:39:13;;;;;;;7.78;3.90;;;;;;;13.45;86.59;100396.19;4947050;28;20122;-72
2021/05/18 05:41:39;;;;;;;9.98;4.50;;;;;;;13.45;100.00;92489.84;4949961;28;20085;-72
2021/05/18 05:44:05;;;;;;;9.70;4.45;;;;;;;13.30;88.01;100399.97;4951941;28;20226;-71
2021/05/18 05:46:31;;;;;;;6.85;4.05;;;;;;;13.41;87.72;100398.13;4927090;29;20079;-73
2021/05/18 05:48:57;;;;;;;9.38;4.38;;;;;;;13.48;86.26;100398.13;4957820;28;20054;-75
2021/05/18 05:51:25;;;;;;;9.13;4.35;;;;;;;13.37;86.90;100394.63;4945308;28;20048;-73
2021/05/18 05:53:52;;;;;;;10.82;3.92;;;;;;;13.57;86.08;100395.84;4950220;28;20043;-74
2021/05/18 05:56:18;;;;;;;7.97;3.92;;;;;;;13.37;86.51;100391.91;4953590;28;20051;-72
2021/05/18 05:58:45;;;;;;;10.98;4.72;;;;;;;13.43;86.53;100401.97;4951612;28;20563;-72
2021/05/18 06:01:11;;;;;;;11.05;3.95;;;;;;;13.49;87.53;100407.81;4952294;28;20035;-72
2021/05/18 06:03:37;;;;;;;9.30;4.45;;;;;;;13.65;87.14;100402.84;4973825;28;20042;-74
2021/05/18 06:06:03;;;;;;;8.75;3.72;;;;;;;13.79;85.03;100410.22;4995096;28;20030;-74
2021/05/18 06:08:29;;;;;;;11.82;4.32;;;;;;;13.84;84.62;100405.22;4993669;28;20046;-72
2021/05/18 06:11:01;;;;;;;12.00;4.68;;;;;;;13.84;84.62;100405.22;4997412;28;20044;-75
2021/05/18 06:34:02;;;;;;;9.63;4.00;;;;;;;14.50;83.35;100419.31;5010721;28;20144;-74
2021/05/18 06:48:41;;;;;;;7.65;3.60;;;;;;;15.76;76.12;100429.91;4973108;28;20136;-74
2021/05/18 06:51:07;;;;;;;7.63;3.17;;;;;;;15.55;76.46;100427.31;5009336;28;20034;-74
2021/05/18 06:53:32;;;;;;;11.32;3.50;;;;;;;15.75;75.59;100425.69;5017198;28;20028;-74
2021/05/18 06:55:59;;;;;;;10.38;3.20;;;;;;;16.19;75.93;100428.53;5011779;28;20030;-74
2021/05/18 07:01:04;;;;;;;8.48;3.50;;;;;;;16.30;74.98;100424.97;5006981;28;20038;-74
2021/05/18 07:03:36;;;;;;;8.95;3.40;;;;;;;15.91;75.69;100433.38;5009032;28;20032;-74
2021/05/18 07:08:55;;;;;;;7.78;2.88;;;;;;;15.86;74.48;100431.03;5014512;28;20044;-73
2021/05/18 07:11:15;;;;;;;7.80;3.45;;;;;;;15.57;76.97;100435.81;5002732;28;20076;-72
2021/05/18 07:13:40;;;;;;;7.03;3.35;;;;;;;15.52;77.33;100432.75;5002711;28;20450;-73
2021/05/18 07:16:06;;;;;;;8.65;3.22;;;;;;;15.72;78.04;100431.88;5001005;28;20021;-72
2021/05/18 07:18:32;;;;;;;6.55;3.40;;;;;;;15.83;77.94;100445.44;4994113;28;20062;-74
2021/05/18 07:20:57;;;;;;;8.48;3.75;;;;;;;15.92;77.30;100434.91;4998896;28;20068;-75
2021/05/18 07:23:25;;;;;;;9.23;3.45;;;;;;;15.83;77.16;100440.75;4991373;28;20380;-73
2021/05/18 07:25:51;;;;;;;7.97;3.42;;;;;;;15.47;78.08;100444.00;4994046;28;20046;-74
2021/05/18 07:28:17;;;;;;;7.20;3.72;;;;;;;15.66;76.98;100440.84;5004354;28;20157;-72
2021/05/18 07:30:43;;;;;;;8.43;3.55;;;;;;;15.79;76.20;100453.59;4997457;28;20038;-73
2021/05/18 07:33:09;;;;;;;7.78;3.30;;;;;;;15.76;75.10;100446.22;4996494;28;20033;-73
2021/05/18 07:35:35;;;;;;;8.85;3.53;;;;;;;15.67;74.43;100454.03;5008637;28;20029;-74
2021/05/18 07:38:01;;;;;;;6.72;3.70;;;;;;;15.75;75.48;100452.84;5012911;28;20025;-74
2021/05/18 07:40:27;;;;;;;5.53;3.15;;;;;;;15.76;76.85;100457.06;5013772;28;20033;-72
2021/05/18 07:42:53;;;;;;;5.35;3.35;;;;;;;15.93;74.12;100458.19;5035451;23;20051;-73
2021/05/18 07:45:27;;;;;;;9.85;3.63;;;;;;;15.87;73.61;100460.50;5051001;28;20029;-72
2021/05/18 07:48:00;;;;;;;8.30;3.13;;;;;;;15.85;74.82;100464.81;5047056;28;20115;-72
2021/05/18 07:50:42;;;;;;;5.20;3.50;;;;;;;15.69;73.78;100462.53;5031778;28;20029;-73
2021/05/18 08:06:47;;;;;;;10.88;4.70;;;;;;;15.77;77.04;100466.78;5012311;28;20855;-73
2021/05/18 08:09:13;;;;;;;7.32;4.80;;;;;;;15.85;77.37;100465.56;5024633;28;20151;-73
2021/05/18 08:11:38;;;;;;;6.85;4.55;;;;;;;16.09;74.65;100475.56;5026746;28;20030;-73
2021/05/18 08:14:04;;;;;;;8.05;4.82;;;;;;;16.22;74.80;100462.28;5011932;28;20037;-73
2021/05/18 08:47:18;;;;;;;8.90;5.05;;;;;;;16.16;72.36;100475.50;5012932;28;20038;-73
2021/05/18 10:26:35;;;;;;;3.53;2.90;;;;;;;15.44;71.33;100510.72;5025638;28;20038;-73
2021/05/18 10:36:28;;;;;;;5.95;2.63;;;;;;;15.37;71.52;100511.44;5029253;28;20037;-73
2021/05/18 10:39:14;;;;;;;6.35;2.47;;;;;;;15.10;72.50;100517.66;5031977;28;20122;-72
2021/05/18 10:41:39;;;;;;;6.80;2.30;;;;;;;15.17;72.81;100514.97;5028164;28;20135;-72
2021/05/18 10:44:06;;;;;;;4.03;2.25;;;;;;;15.27;72.93;100516.91;5034469;28;20139;-72
2021/05/18 10:46:53;;;;;;;4.32;2.60;;;;;;;15.54;70.74;100511.84;5038730;28;20052;-72
2021/05/18 10:49:30;;;;;;;5.47;2.42;;;;;;;15.49;70.89;100506.81;5038064;28;20100;-74
2021/05/18 10:51:59;;;;;;;6.85;3.17;;;;;;;15.51;72.11;100510.69;5036421;28;20052;-74
2021/05/18 10:54:32;;;;;;;7.25;2.88;;;;;;;15.58;72.79;100516.09;5038656;28;20030;-74
2021/05/18 10:57:27;;;;;;;5.53;2.50;;;;;;;15.67;71.51;100511.03;5037063;28;20052;-74
2021/05/18 10:59:55;;;;;;;3.65;2.85;;;;;;;15.83;69.09;100508.63;5033216;28;20033;-73
2021/05/18 11:02:31;;;;;;;3.75;2.58;;;;;;;16.09;66.70;100518.25;5038758;28;20067;-73
2021/05/18 11:05:00;;;;;;;3.50;2.33;;;;;;;16.09;66.55;100523.69;5037428;28;20073;-74
2021/05/18 11:07:33;;;;;;;2.95;2.50;;;;;;;16.12;65.89;100518.22;5035723;28;20048;-74
2021/05/18 11:09:59;;;;;;;4.07;2.60;;;;;;;16.25;66.43;100521.28;5037122;28;21397;-73
2021/05/18 11:12:25;;;;;;;3.35;2.33;;;;;;;16.34;64.72;100520.88;5033782;28;20036;-74
2021/05/18 11:15:12;;;;;;;4.45;2.40;;;;;;;16.39;67.18;100512.28;5039408;28;20037;-74
2021/05/18 11:17:40;;;;;;;5.40;2.00;;;;;;;16.56;66.02;100514.94;5037730;28;20033;-73
2021/05/18 11:20:12;;;;;;;5.20;2.60;;;;;;;16.67;64.51;100512.13;5038898;28;20444;-73
2021/05/18 11:26:07;;;;;;;5.00;2.70;;;;;;;17.30;62.88;100519.00;5023707;28;20124;-73
2021/05/18 11:28:47;;;;;;;3.03;1.90;;;;;;;17.57;61.43;100515.28;5039291;28;20033;-74
2021/05/18 11:31:21;;;;;;;2.95;2.15;;;;;;;17.83;58.12;100509.13;5018678;28;20033;-74
2021/05/18 11:33:52;;;;;;;3.13;1.95;;;;;;;18.11;57.04;100504.53;5038464;28;20048;-74
2021/05/18 11:36:20;;;;;;;3.05;2.08;;;;;;;18.39;56.52;100506.88;5023049;28;20032;-74
2021/05/18 11:38:54;;;;;;;3.85;2.10;;;;;;;18.63;56.22;100506.53;5041488;28;20608;-74
2021/05/18 11:41:27;;;;;;;2.17;1.95;;;;;;;18.79;54.21;100497.72;5033845;28;20036;-74
2021/05/18 11:43:57;;;;;;;4.22;2.15;;;;;;;18.50;54.82;100496.63;5039215;28;20106;-74
2021/05/18 11:46:26;;;;;;;2.42;1.90;;;;;;;18.43;55.95;100504.88;5034142;28;20426;-73
2021/05/18 11:49:01;;;;;;;5.25;2.58;;;;;;;18.32;55.46;100515.13;5035712;28;20741;-73
2021/05/18 11:51:45;;;;;;;4.72;2.60;;;;;;;17.97;56.17;100517.16;5033208;28;20040;-73
2021/05/18 11:54:12;;;;;;;3.78;2.40;;;;;;;17.63;58.55;100526.50;5030936;28;20473;-73
2021/05/18 11:56:39;;;;;;;5.38;1.90;;;;;;;17.08;60.28;100523.88;5035930;28;20143;-73
2021/05/18 11:59:13;;;;;;;2.10;1.80;;;;;;;16.89;61.13;100522.47;5037061;28;20040;-74
2021/05/18 12:01:48;;;;;;;3.05;2.20;;;;;;;16.96;62.95;100527.84;5018361;28;20025;-73
2021/05/18 12:04:16;;;;;;;4.72;2.30;;;;;;;16.88;62.73;100531.78;5028513;28;21697;-74
2021/05/18 12:07:04;;;;;;;6.00;2.50;;;;;;;17.17;61.94;100526.88;5035980;28;20035;-73
2021/05/18 12:09:32;;;;;;;4.25;2.80;;;;;;;17.08;62.63;100530.09;5033383;28;20029;-73
2021/05/18 12:12:02;;;;;;;4.05;2.30;;;;;;;17.08;63.40;100532.81;5034053;28;20029;-73
2021/05/18 12:14:28;;;;;;;5.05;2.08;;;;;;;17.21;65.64;100530.34;5034748;28;20036;-73
2021/05/18 12:16:54;;;;;;;5.15;2.40;;;;;;;17.35;64.83;100535.69;5033513;28;20486;-73
2021/05/18 12:19:21;;;;;;;3.97;1.88;;;;;;;17.43;65.58;100528.22;5028457;28;20040;-73
2021/05/18 12:21:49;;;;;;;4.82;2.55;;;;;;;17.46;67.31;100527.44;5033791;28;20026;-73
2021/05/18 12:24:26;;;;;;;5.57;2.70;;;;;;;17.64;66.70;100528.81;5022482;28;20048;-73
2021/05/18 12:26:58;;;;;;;4.03;2.22;;;;;;;17.70;65.97;100535.38;5034339;28;20045;-73
2021/05/18 12:29:35;;;;;;;4.55;2.60;;;;;;;17.59;64.11;100534.72;5034874;28;20036;-73
2021/05/18 12:32:26;;;;;;;6.22;2.80;;;;;;;17.57;64.25;100537.06;5020422;28;20041;-73
2021/05/18 12:35:04;;;;;;;5.80;3.03;;;;;;;17.57;65.10;100528.91;5025261;28;20038;-73
2021/05/18 12:37:33;;;;;;;9.13;3.22;;;;;;;17.55;64.48;100533.19;5008987;28;20133;-73
2021/05/18 12:40:02;;;;;;;6.75;3.30;;;;;;;17.55;66.78;100535.91;5035654;28;20096;-73
2021/05/18 12:42:29;;;;;;;5.47;3.22;;;;;;;17.41;67.95;100544.19;5021480;28;20033;-73
2021/05/18 12:45:07;;;;;;;5.35;3.63;;;;;;;17.68;68.21;100540.44;5028508;28;20048;-73
2021/05/18 12:47:41;;;;;;;7.38;3.70;;;;;;;17.80;65.87;100537.22;5030418;28;20060;-73
2021/05/18 12:50:10;;;;;;;5.95;3.50;;;;;;;17.87;65.34;100528.16;5029561;28;20461;-73
2021/05/18 12:52:37;;;;;;;6.00;3.65;;;;;;;18.16;64.47;100539.50;5021030;28;20498;-73
2021/05/18 12:55:13;;;;;;;5.03;3.70;;;;;;;18.42;63.69;100528.69;5028483;28;20060;-73
2021/05/18 12:57:52;;;;;;;8.35;3.97;;;;;;;18.34;63.06;100531.88;5030407;28;20026;-73
2021/05/18 13:00:22;;;;;;;6.25;3.63;;;;;;;18.06;65.00;100534.97;5022200;28;20037;-73
2021/05/18 13:02:48;;;;;;;4.63;3.00;;;;;;;17.92;65.97;100536.66;5021122;28;20565;-73
2021/05/18 13:05:29;;;;;;;7.18;3.30;;;;;;;17.93;67.31;100535.50;5020752;28;20040;-73
2021/05/18 13:08:12;;;;;;;;;;;;;;;18.02;67.17;100532.28;5013719;28;20030;-73
2021/05/18 13:13:43;;;;;;;10.48;3.30;;;;;;;18.08;64.70;100535.34;5033121;28;20044;-73
2021/05/18 13:16:16;;;;;;;;;;;;;;;18.00;65.63;100527.22;5034963;28;20112;-73
2021/05/18 13:18:55;;;;;;;5.25;3.13;;;;;;;18.10;63.34;100527.53;5026696;28;19913;-73
2021/05/18 13:21:34;;;;;;;7.78;2.90;;;;;;;18.03;62.45;100523.69;5024543;28;20124;-73
2021/05/18 13:26:27;;;;;;;2.58;2.13;;;;;;;17.99;60.80;100530.34;5024951;28;20022;-73
2021/05/18 13:29:08;;;;;;;2.40;2.13;;;;;;;17.99;60.18;100531.16;5025298;28;20029;-73
2021/05/18 13:31:36;;;;;;;3.25;2.30;;;;;;;18.13;59.58;100527.47;5025318;28;20036;-73
2021/05/18 13:34:03;;;;;;;2.38;1.90;;;;;;;18.09;57.26;100534.13;5021053;28;20040;-73
2021/05/18 13:36:34;;;;;;;3.90;2.00;;;;;;;18.08;57.72;100538.06;5005470;28;20020;-73
2021/05/18 13:39:04;;;;;;;1.98;1.48;;;;;;;17.91;58.04;100535.13;5019943;28;20045;-73
2021/05/18 13:41:30;;;;;;;5.22;1.90;;;;;;;18.02;57.94;100538.50;5022163;28;20072;-73
2021/05/18 13:43:55;;;;;;;3.95;1.70;;;;;;;18.02;58.21;100543.94;5037251;22;20147;-73
2021/05/18 13:46:21;;;;;;;4.82;2.05;;;;;;;17.88;58.76;100541.41;5027323;28;20140;-73
2021/05/18 13:48:47;;;;;;;2.63;1.80;;;;;;;17.86;58.71;100541.03;5014625;28;20052;-73
2021/05/18 13:51:14;;;;;;;2.25;1.90;;;;;;;17.98;58.70;100542.47;5024687;28;20025;-74
2021/05/18 13:53:41;;;;;;;2.38;1.77;;;;;;;18.07;60.00;100539.22;5008574;28;20109;-73
2021/05/18 13:56:07;;;;;;;3.63;2.20;;;;;;;17.81;60.73;100544.19;4998970;28;20022;-73
2021/05/18 13:58:33;;;;;;;2.88;2.08;;;;;;;17.80;61.85;100548.09;5009140;28;20550;-73
2021/05/18 14:00:59;;;;;;;1.77;1.48;;;;;;;17.54;63.17;100542.53;5002523;28;20129;-75
2021/05/18 14:03:24;;;;;;;1.80;1.70;;;;;;;17.52;61.85;100542.94;5012765;28;20066;-73
2021/05/18 14:05:50;;;;;;;1.73;1.50;;;;;;;17.26;62.96;100546.28;5011210;28;20025;-74
2021/05/18 14:10:52;;;;;;;2.63;1.33;;;;;;;17.28;63.27;100537.69;5011286;28;20116;-73
2021/05/18 14:13:17;;;;;;;1.55;1.40;;;;;;;17.17;64.25;100552.16;5009945;28;20113;-74
2021/05/18 14:15:43;;;;;;;2.25;1.60;;;;;;;16.73;66.74;100545.88;5010923;28;20466;-73
2021/05/18 14:18:10;;;;;;;2.42;1.30;;;;;;;16.88;64.75;100547.34;5007933;28;20036;-75
2021/05/18 14:20:36;;;;;;;5.32;1.58;;;;;;;16.72;66.26;100538.91;5011378;28;20062;-73
2021/05/18 14:23:02;;;;;;;5.20;1.58;;;;;;;16.53;66.92;100548.34;4999273;28;20076;-73
2021/05/18 14:25:27;;;;;;;2.00;1.80;;;;;;;16.70;67.72;100543.97;5001422;28;20070;-73
2021/05/18 14:27:53;;;;;;;3.22;1.80;;;;;;;16.76;66.93;100539.66;5005627;28;20062;-73
2021/05/18 14:30:19;;;;;;;2.88;1.85;;;;;;;16.83;66.29;100536.88;5008429;28;20585;-73
2021/05/18 14:32:44;;;;;;;2.75;1.85;;;;;;;16.77;67.24;100533.81;5010053;28;20037;-73
2021/05/18 14:35:12;;;;;;;3.38;2.00;;;;;;;16.68;68.50;100524.56;5007199;28;20026;-73
2021/05/18 14:37:39;;;;;;;2.17;1.90;;;;;;;16.60;70.24;100536.66;5002972;28;20038;-73
2021/05/18 14:45:54;;;;;;;2.65;2.22;;;;;;;16.80;69.26;100538.44;4950707;29;20047;-73
2021/05/18 14:54:23;;;;;;;5.50;2.30;;;;;;;17.22;70.78;100526.47;4948388;28;20054;-73
2021/05/18 14:56:40;;;;;;;1.58;1.40;;;;;;;17.27;66.88;100531.47;4944371;29;20155;-73
2021/05/18 14:59:06;;;;;;;2.85;1.30;;;;;;;17.50;65.62;100528.94;4948696;28;20086;-73
2021/05/18 15:01:31;;;;;;;1.50;1.25;;;;;;;17.76;64.42;100531.03;4942919;28;20039;-73
2021/05/18 15:03:57;;;;;;;1.65;1.10;;;;;;;18.11;61.38;100534.50;4949524;28;20452;-74
2021/05/18 15:06:22;;;;;;;1.83;1.08;;;;;;;18.37;59.15;100528.34;4947270;29;20116;-75
2021/05/18 15:08:48;;;;;;;0.80;0.80;;;;;;;18.42;54.55;100525.13;4950227;29;21068;-74
2021/05/18 15:11:13;;;;;;;2.58;0.90;;;;;;;18.58;54.32;100531.53;4947494;28;20035;-74
2021/05/18 15:13:39;;;;;;;1.02;0.93;;;;;;;18.59;54.74;100535.06;4949846;29;20043;-74
2021/05/18 15:16:04;;;;;;;1.35;0.88;;;;;;;18.73;54.34;100538.38;4950333;28;20050;-73
2021/05/18 15:18:32;;;;;;;2.28;0.77;;;;;;;18.76;54.79;100539.47;4946738;28;20047;-76
2021/05/18 15:20:57;;;;;;;3.10;0.95;;;;;;;18.61;54.85;100540.88;4995700;28;20046;-74
2021/05/18 15:23:23;;;;;;;1.42;1.00;;;;;;;18.54;54.06;100530.06;5009683;28;20045;-76
2021/05/18 15:25:49;;;;;;;3.67;1.13;;;;;;;18.42;55.56;100528.69;4995532;28;20481;-73
2021/05/18 15:28:14;;;;;;;0.75;0.75;;;;;;;18.47;55.18;100530.16;5007047;28;20092;-73
2021/05/18 15:30:40;;;;;;;2.35;1.00;;;;;;;18.47;54.72;100527.41;5005397;28;20120;-73
2021/05/18 15:33:05;;;;;;;1.13;1.00;;;;;;;18.46;55.62;100525.91;5005683;28;20033;-77
2021/05/18 15:35:31;;;;;;;2.83;0.77;;;;;;;18.35;54.85;100528.72;5006333;28;20486;-74
2021/05/18 15:37:58;;;;;;;2.63;0.93;;;;;;;18.40;55.38;100532.97;5002208;28;20042;-73
2021/05/18 15:40:24;;;;;;;4.32;1.20;;;;;;;18.35;53.60;100530.69;5001634;28;20464;-75
2021/05/18 15:42:49;;;;;;;1.67;0.90;;;;;;;18.33;53.84;100533.06;4996756;28;20040;-73
2021/05/18 15:45:15;;;;;;;1.95;0.90;;;;;;;18.13;55.35;100530.19;5007728;28;20449;-74
2021/05/18 15:47:41;;;;;;;1.48;1.08;;;;;;;17.89;53.92;100534.75;5008683;28;20029;-74
2021/05/18 15:50:08;;;;;;;1.92;0.93;;;;;;;17.79;55.51;100530.19;5005490;28;20042;-76
2021/05/18 15:52:34;;;;;;;1.25;1.15;;;;;;;17.72;55.36;100530.28;5003547;28;20455;-76
2021/05/18 15:54:59;;;;;;;1.42;1.13;;;;;;;17.83;56.50;100533.66;5006180;28;20038;-75
2021/05/18 15:57:25;;;;;;;5.72;1.42;;;;;;;17.92;55.37;100527.72;5005062;28;20049;-76
2021/05/18 15:59:51;;;;;;;2.17;1.05;;;;;;;17.87;55.85;100536.34;5005003;28;20037;-74
2021/05/18 16:02:17;;;;;;;2.33;1.30;;;;;;;17.71;57.68;100539.63;5004206;28;20037;-76
2021/05/18 16:04:43;;;;;;;1.52;1.33;;;;;;;17.71;58.27;100541.59;4996389;28;20068;-75
2021/05/18 16:07:11;;;;;;;1.25;1.15;;;;;;;18.02;56.33;100537.75;4999110;28;20054;-75
2021/05/18 16:09:37;;;;;;;2.90;1.25;;;;;;;18.19;54.16;100538.69;4996465;28;20029;-73
2021/05/18 16:12:02;;;;;;;3.45;2.08;;;;;;;18.12;54.84;100546.97;5007130;28;20088;-75
2021/05/18 16:14:28;;;;;;;2.60;1.55;;;;;;;17.96;55.15;100551.03;5009389;28;20038;-75
2021/05/18 16:16:53;;;;;;;5.30;1.40;;;;;;;17.79;55.93;100545.75;5003647;28;20060;-75
2021/05/18 16:19:20;;;;;;;4.22;1.40;;;;;;;17.76;55.73;100552.81;4998817;28;20030;-74
2021/05/18 16:21:46;;;;;;;2.22;1.83;;;;;;;17.84;55.98;100548.06;4997571;28;20033;-74
2021/05/18 16:24:12;;;;;;;2.03;1.80;;;;;;;17.75;56.38;100553.97;4998183;28;20042;-74
2021/05/18 16:26:37;;;;;;;3.08;1.88;;;;;;;17.76;55.81;100555.53;5000711;28;20118;-74
2021/05/18 16:29:04;;;;;;;2.70;1.80;;;;;;;17.57;57.33;100545.25;4987625;28;20520;-74
2021/05/18 16:31:31;;;;;;;2.70;1.58;;;;;;;17.31;58.63;100554.00;4992152;28;20560;-73
2021/05/18 16:33:57;;;;;;;2.08;1.60;;;;;;;17.43;59.07;100550.78;4996052;28;20026;-75
2021/05/18 16:36:24;;;;;;;2.30;2.10;;;;;;;17.26;59.94;100562.59;5003380;28;20030;-75
2021/05/18 16:38:50;;;;;;;3.25;1.27;;;;;;;17.12;60.98;100557.28;5010091;28;20041;-74
2021/05/18 16:41:16;;;;;;;1.90;1.58;;;;;;;16.98;61.94;100562.81;5002099;28;20378;-75